< < Back
Terminal Aerodrome Forecast


Current Version              Previous Versions:   1  2  3  4  5  6  7  8  9  

Terminal Aerodrome Forecast

129
FTUS42 KMLB 282320
TAFDAB
TAF
KDAB 282320Z 2900/2924 29005KT P6SM FEW250
     FM291500 35010KT P6SM SKC=

Latest METAR

926
SAUS80 KWBC 291000
MTRDAB
METAR KDAB 290953Z 31004KT 10SM CLR 07/04 A3026 RMK AO2 SLP245
T00720039


USA.gov is the U.S. government's official web portal to all federal, state and local government web resources and services.